createdAt,value
2019-01-06T00:01:48.625Z,14.60
2019-01-06T00:04:46.661Z,19.47
2019-01-06T00:07:33.012Z,16.03
2019-01-06T00:10:33.155Z,20.00
2019-01-06T00:13:33.644Z,20.77
2019-01-06T00:16:20.767Z,23.07
2019-01-06T00:19:26.945Z,21.97
2019-01-06T00:22:13.919Z,24.50
2019-01-06T00:25:00.852Z,24.47
2019-01-06T00:27:58.752Z,17.77
2019-01-06T00:30:44.370Z,19.43
2019-01-06T00:33:31.231Z,18.40
2019-01-06T00:36:23.108Z,19.00
2019-01-06T00:39:14.276Z,18.57
2019-01-06T00:42:01.398Z,17.97
2019-01-06T00:44:58.680Z,17.73
2019-01-06T00:47:48.672Z,16.83
2019-01-06T00:50:36.809Z,18.60
2019-01-06T00:53:23.535Z,24.63
2019-01-06T00:56:24.910Z,15.63
2019-01-06T00:59:11.545Z,15.30
2019-01-06T01:02:10.699Z,14.40
2019-01-06T01:04:57.404Z,16.33
2019-01-06T01:07:44.394Z,14.80
2019-01-06T01:10:27.801Z,14.10
2019-01-06T01:13:07.482Z,15.20
2019-01-06T01:15:50.360Z,15.80
2019-01-06T01:18:48.887Z,15.23
2019-01-06T01:21:40.070Z,15.07
2019-01-06T01:24:27.070Z,14.40
2019-01-06T01:27:15.500Z,13.90
2019-01-06T01:30:21.921Z,15.57
2019-01-06T01:33:09.049Z,13.60
2019-01-06T01:35:55.967Z,16.70
2019-01-06T01:38:44.476Z,15.33
2019-01-06T01:41:38.779Z,18.00
2019-01-06T01:44:41.969Z,20.27
2019-01-06T01:47:33.352Z,17.60
2019-01-06T01:50:31.692Z,19.77
2019-01-06T01:53:20.284Z,14.80
2019-01-06T01:56:01.937Z,12.77
2019-01-06T01:58:56.181Z,15.77
2019-01-06T02:01:42.909Z,15.43
2019-01-06T02:04:35.094Z,13.60
2019-01-06T02:07:22.156Z,13.83
2019-01-06T02:10:09.319Z,14.07
2019-01-06T02:12:56.707Z,12.67
2019-01-06T02:15:44.872Z,13.20
2019-01-06T02:18:31.702Z,12.93
2019-01-06T02:21:24.708Z,13.13
2019-01-06T02:24:14.098Z,11.27
2019-01-06T02:27:08.454Z,12.57
2019-01-06T02:29:56.611Z,13.10
2019-01-06T02:32:54.351Z,10.50
2019-01-06T02:35:42.830Z,9.13
2019-01-06T02:38:42.799Z,11.43
2019-01-06T02:41:39.163Z,11.30
2019-01-06T02:44:26.057Z,11.60
2019-01-06T02:47:13.046Z,11.30
2019-01-06T02:50:07.058Z,11.73
2019-01-06T02:53:01.226Z,12.83
2019-01-06T02:55:48.207Z,10.33
2019-01-06T02:58:45.064Z,10.00
2019-01-06T03:01:35.994Z,9.20
2019-01-06T03:04:27.479Z,8.77
2019-01-06T03:07:33.945Z,11.87
2019-01-06T03:10:37.267Z,9.40
2019-01-06T03:13:37.698Z,10.30
2019-01-06T03:16:24.402Z,10.43
2019-01-06T03:19:11.441Z,10.67
2019-01-06T03:22:14.928Z,7.63
2019-01-06T03:24:57.591Z,7.73
2019-01-06T03:27:45.756Z,8.27
2019-01-06T03:30:39.770Z,6.97
2019-01-06T03:33:26.699Z,9.27
2019-01-06T03:36:14.864Z,7.73
2019-01-06T03:39:01.690Z,7.70
2019-01-06T03:41:48.616Z,7.57
2019-01-06T03:44:40.026Z,9.20
2019-01-06T03:47:26.733Z,10.93
2019-01-06T03:50:08.504Z,9.97
2019-01-06T03:52:59.771Z,8.17
2019-01-06T03:55:47.881Z,9.60
2019-01-06T03:58:42.257Z,8.30
2019-01-06T04:01:42.673Z,10.00
2019-01-06T04:04:22.214Z,11.23
2019-01-06T04:07:09.227Z,13.50
2019-01-06T04:10:15.761Z,14.60
2019-01-06T04:13:16.126Z,10.17
2019-01-06T04:16:10.104Z,11.50
2019-01-06T04:19:10.305Z,15.67
2019-01-06T04:22:03.538Z,11.73
2019-01-06T04:25:06.745Z,14.53
2019-01-06T04:27:57.300Z,14.63
2019-01-06T04:30:44.163Z,12.07
2019-01-06T04:33:30.915Z,12.80
2019-01-06T04:36:17.622Z,11.47
2019-01-06T04:39:14.770Z,14.60
2019-01-06T04:42:03.219Z,14.10
2019-01-06T04:44:51.992Z,11.57
2019-01-06T04:47:45.292Z,15.67
2019-01-06T04:50:45.734Z,14.83
2019-01-06T04:53:40.799Z,17.20
2019-01-06T04:56:41.203Z,14.13
2019-01-06T04:59:29.365Z,13.43
2019-01-06T05:02:16.942Z,12.93
2019-01-06T05:05:02.347Z,19.13
2019-01-06T05:07:49.892Z,28.60
2019-01-06T05:10:38.013Z,19.07
2019-01-06T05:13:24.687Z,28.17
2019-01-06T05:16:12.877Z,16.20
2019-01-06T05:19:05.411Z,22.53
2019-01-06T05:21:52.366Z,16.17
2019-01-06T05:24:39.694Z,16.57
2019-01-06T05:27:43.230Z,16.30
2019-01-06T05:30:46.768Z,17.20
2019-01-06T05:33:33.715Z,15.57
2019-01-06T05:36:21.874Z,12.47
2019-01-06T05:39:16.065Z,13.07
2019-01-06T05:42:17.317Z,15.93
2019-01-06T05:45:14.531Z,18.17
2019-01-06T05:48:08.595Z,13.53
2019-01-06T05:51:09.028Z,21.90
2019-01-06T05:54:09.588Z,16.47
2019-01-06T05:57:09.799Z,14.93
2019-01-06T05:59:54.978Z,15.57
2019-01-06T06:02:55.170Z,14.43
2019-01-06T06:05:42.227Z,16.93
2019-01-06T06:08:46.081Z,12.60
2019-01-06T06:11:30.180Z,12.60
2019-01-06T06:14:16.836Z,11.30
2019-01-06T06:17:17.043Z,13.47
2019-01-06T06:20:02.394Z,14.37
2019-01-06T06:22:53.541Z,14.07
2019-01-06T06:25:41.704Z,10.13
2019-01-06T06:28:35.783Z,14.67
2019-01-06T06:31:21.658Z,11.97
2019-01-06T06:34:10.848Z,9.80
2019-01-06T06:37:14.266Z,12.63
2019-01-06T06:40:08.334Z,13.27
2019-01-06T06:42:55.725Z,11.40
2019-01-06T06:45:43.319Z,11.90
2019-01-06T06:48:30.576Z,12.33
2019-01-06T06:51:17.381Z,11.07
2019-01-06T06:54:13.678Z,9.83
2019-01-06T06:57:08.524Z,11.03
2019-01-06T07:00:11.156Z,11.33
2019-01-06T07:03:13.811Z,9.83
2019-01-06T07:06:08.120Z,8.20
2019-01-06T07:08:54.525Z,9.10
2019-01-06T07:11:51.740Z,10.53
2019-01-06T07:14:35.501Z,7.97
2019-01-06T07:18:02.453Z,9.23
2019-01-06T07:20:51.295Z,10.30
2019-01-06T07:23:38.461Z,13.63
2019-01-06T07:26:25.401Z,13.50
2019-01-06T07:29:12.413Z,12.27
2019-01-06T07:32:00.541Z,12.93
2019-01-06T07:34:57.716Z,17.73
2019-01-06T07:37:42.941Z,21.97
2019-01-06T07:40:37.140Z,194.13
2019-01-06T07:43:40.450Z,386.67
2019-01-06T07:46:37.803Z,54.80
2019-01-06T07:49:34.744Z,32.60
2019-01-06T07:52:26.080Z,36.97
2019-01-06T07:55:08.915Z,28.50
2019-01-06T07:58:03.110Z,20.70
2019-01-06T08:00:58.159Z,50.10
2019-01-06T08:03:45.380Z,41.17
2019-01-06T08:06:36.594Z,24.93
2019-01-06T08:09:40.206Z,22.30
2019-01-06T08:12:20.589Z,26.30
2019-01-06T08:15:17.957Z,31.57
2019-01-06T08:18:04.955Z,25.93
2019-01-06T08:20:53.116Z,29.20
2019-01-06T08:23:39.882Z,36.00
2019-01-06T08:26:26.994Z,62.13
2019-01-06T08:29:27.146Z,104.50
2019-01-06T08:32:18.136Z,35.07
2019-01-06T08:35:12.339Z,31.53
2019-01-06T08:37:56.643Z,36.27
2019-01-06T08:40:52.304Z,53.13
2019-01-06T08:43:33.744Z,63.53
2019-01-06T08:46:34.238Z,44.37
2019-01-06T08:49:21.754Z,90.60
2019-01-06T08:52:08.581Z,83.40
2019-01-06T08:55:08.902Z,61.37
2019-01-06T08:58:03.075Z,58.13
2019-01-06T09:00:57.301Z,41.63
2019-01-06T09:03:46.115Z,57.87
2019-01-06T09:06:33.463Z,34.53
2019-01-06T09:09:20.277Z,59.53
2019-01-06T09:12:08.313Z,48.03
2019-01-06T09:14:56.974Z,55.63
2019-01-06T09:17:45.096Z,38.37
2019-01-06T09:20:31.881Z,32.97
2019-01-06T09:23:32.624Z,37.07
2019-01-06T09:26:33.812Z,39.23
2019-01-06T09:29:29.804Z,53.67
2019-01-06T09:32:16.746Z,55.47
2019-01-06T09:35:06.123Z,38.87
2019-01-06T09:38:00.385Z,34.00
2019-01-06T09:40:55.251Z,24.87
2019-01-06T09:43:42.658Z,37.77
2019-01-06T09:46:48.908Z,53.73
2019-01-06T09:49:51.236Z,55.17
2019-01-06T09:52:54.021Z,52.77
2019-01-06T09:55:40.797Z,39.50
2019-01-06T09:58:27.813Z,39.77
2019-01-06T10:01:22.145Z,41.57
2019-01-06T10:04:11.169Z,30.70
2019-01-06T10:07:11.611Z,39.40
2019-01-06T10:09:54.485Z,35.80
2019-01-06T10:12:52.294Z,39.33
2019-01-06T10:15:39.011Z,47.70
2019-01-06T10:18:24.518Z,31.67
2019-01-06T10:21:11.277Z,43.53
2019-01-06T10:23:59.648Z,31.00
2019-01-06T10:26:46.591Z,40.73
2019-01-06T10:29:33.667Z,40.47
2019-01-06T10:32:20.705Z,50.47
2019-01-06T10:35:07.492Z,51.60
2019-01-06T10:38:03.247Z,77.13
2019-01-06T10:40:52.421Z,55.47
2019-01-06T10:43:46.934Z,35.13
2019-01-06T10:46:38.520Z,25.53
2019-01-06T10:49:33.663Z,30.70
2019-01-06T10:52:33.896Z,49.30
2019-01-06T10:55:38.475Z,123.17
2019-01-06T10:58:32.642Z,34.73
2019-01-06T11:01:19.696Z,132.03
2019-01-06T11:04:16.985Z,16.50
2019-01-06T11:07:04.702Z,58.47
2019-01-06T11:09:51.635Z,55.53
2019-01-06T11:12:52.780Z,19.97
2019-01-06T11:15:53.284Z,19.40
2019-01-06T11:18:47.478Z,21.27
2019-01-06T11:21:35.349Z,32.37
2019-01-06T11:24:33.314Z,37.93
2019-01-06T11:27:39.764Z,67.27
2019-01-06T11:30:30.010Z,35.63
2019-01-06T11:33:16.827Z,45.33
2019-01-06T11:36:13.811Z,38.20
2019-01-06T11:39:00.728Z,23.27
2019-01-06T11:41:48.262Z,19.70
2019-01-06T11:44:38.085Z,18.20
2019-01-06T11:47:25.170Z,14.77
2019-01-06T11:50:16.185Z,18.93
2019-01-06T11:53:10.364Z,11.13
2019-01-06T11:56:01.372Z,40.20
2019-01-06T11:58:48.407Z,40.30
2019-01-06T12:01:36.796Z,23.47
2019-01-06T12:04:23.593Z,37.07
2019-01-06T12:07:10.645Z,106.93
2019-01-06T12:09:56.874Z,30.70
2019-01-06T12:12:45.070Z,68.67
2019-01-06T12:15:33.630Z,22.43
2019-01-06T12:18:24.570Z,35.50
2019-01-06T12:21:12.034Z,46.47
2019-01-06T12:24:03.225Z,54.67
2019-01-06T12:26:42.676Z,53.80
2019-01-06T12:29:29.659Z,84.70
2019-01-06T12:32:16.519Z,31.00
2019-01-06T12:35:09.076Z,26.67
2019-01-06T12:38:02.237Z,32.10
2019-01-06T12:41:05.632Z,45.73
2019-01-06T12:43:53.312Z,93.90
2019-01-06T12:46:51.386Z,65.03
2019-01-06T12:49:38.116Z,79.80
2019-01-06T12:52:38.649Z,80.77
2019-01-06T12:55:25.913Z,95.10
2019-01-06T12:58:12.671Z,202.50
2019-01-06T13:01:00.861Z,460.47
2019-01-06T13:03:49.114Z,82.57
2019-01-06T13:06:41.019Z,60.30
2019-01-06T13:09:44.244Z,89.87
2019-01-06T13:12:47.938Z,193.17
2019-01-06T13:15:44.849Z,99.83
2019-01-06T13:18:35.795Z,82.30
2019-01-06T13:21:22.840Z,78.00
2019-01-06T13:24:14.050Z,182.97
2019-01-06T13:27:01.113Z,136.83
2019-01-06T13:29:44.742Z,168.40
2019-01-06T13:32:38.731Z,119.13
2019-01-06T13:35:27.148Z,341.07
2019-01-06T13:38:18.405Z,235.60
2019-01-06T13:41:06.618Z,116.67
2019-01-06T13:43:54.765Z,124.60
2019-01-06T13:46:43.092Z,87.07
2019-01-06T13:49:31.576Z,225.93
2019-01-06T13:52:19.822Z,81.60
2019-01-06T13:55:20.400Z,223.77
2019-01-06T13:58:04.337Z,179.10
2019-01-06T14:00:52.676Z,213.10
2019-01-06T14:03:48.896Z,198.60
2019-01-06T14:06:37.185Z,170.43
2019-01-06T14:09:28.944Z,214.43
2019-01-06T14:12:17.162Z,228.77
2019-01-06T14:15:04.842Z,106.43
2019-01-06T14:17:51.864Z,160.17
2019-01-06T14:20:47.272Z,180.47
2019-01-06T14:23:38.076Z,93.97
2019-01-06T14:26:35.172Z,226.20
2019-01-06T14:29:22.220Z,198.57
2019-01-06T14:32:10.449Z,134.97
2019-01-06T14:35:13.663Z,206.87
2019-01-06T14:38:20.401Z,101.57
2019-01-06T14:40:59.381Z,256.30
2019-01-06T14:43:47.560Z,174.97
2019-01-06T14:46:40.237Z,106.93
2019-01-06T14:49:35.174Z,199.30
2019-01-06T14:52:21.956Z,154.20
2019-01-06T14:55:14.015Z,103.37
2019-01-06T14:57:56.170Z,87.40
2019-01-06T15:00:42.985Z,184.30
2019-01-06T15:03:34.431Z,201.67
2019-01-06T15:06:38.198Z,121.17
2019-01-06T15:09:36.694Z,160.27
2019-01-06T15:12:23.971Z,117.43
2019-01-06T15:15:15.118Z,161.13
2019-01-06T15:18:18.865Z,291.97
2019-01-06T15:21:05.880Z,109.10
2019-01-06T15:23:51.327Z,121.37
2019-01-06T15:26:45.835Z,141.37
2019-01-06T15:29:40.342Z,108.83
2019-01-06T15:32:32.539Z,115.90
2019-01-06T15:35:20.152Z,198.83
2019-01-06T15:38:26.418Z,165.53
2019-01-06T15:41:23.582Z,474.00
2019-01-06T15:44:14.864Z,386.03
2019-01-06T15:47:03.080Z,109.90
2019-01-06T15:49:51.293Z,119.77
2019-01-06T15:52:38.270Z,75.60
2019-01-06T15:55:21.913Z,110.93
2019-01-06T15:58:07.447Z,216.60
2019-01-06T16:01:10.974Z,154.47
2019-01-06T16:04:08.338Z,194.00
2019-01-06T16:06:52.552Z,53.17
2019-01-06T16:09:39.842Z,121.90
2019-01-06T16:12:34.241Z,108.90
2019-01-06T16:15:34.404Z,107.37
2019-01-06T16:18:21.480Z,95.20
2019-01-06T16:21:08.671Z,159.10
2019-01-06T16:23:59.696Z,130.00
2019-01-06T16:26:53.381Z,123.33
2019-01-06T16:29:40.343Z,132.43
2019-01-06T16:32:27.282Z,183.43
2019-01-06T16:35:14.281Z,72.83
2019-01-06T16:38:05.353Z,50.17
2019-01-06T16:40:54.755Z,73.07
2019-01-06T16:43:55.177Z,29.70
2019-01-06T16:46:54.274Z,51.00
2019-01-06T16:49:51.502Z,39.67
2019-01-06T16:52:51.755Z,47.17
2019-01-06T16:55:49.222Z,37.03
2019-01-06T16:58:49.989Z,155.47
2019-01-06T17:01:39.108Z,27.83
2019-01-06T17:04:34.821Z,47.93
2019-01-06T17:07:26.073Z,72.47
2019-01-06T17:10:13.059Z,58.37
2019-01-06T17:13:10.198Z,64.23
2019-01-06T17:16:06.688Z,59.07
2019-01-06T17:18:47.013Z,59.67
2019-01-06T17:21:33.982Z,154.07
2019-01-06T17:24:22.219Z,51.50
2019-01-06T17:27:18.830Z,157.07
2019-01-06T17:30:07.406Z,49.27
2019-01-06T17:32:47.818Z,109.23
2019-01-06T17:35:48.909Z,72.93
2019-01-06T17:38:35.856Z,101.97
2019-01-06T17:41:22.989Z,51.57
2019-01-06T17:44:11.265Z,58.87
2019-01-06T17:47:17.920Z,195.90
2019-01-06T17:50:18.179Z,140.67
2019-01-06T17:53:05.201Z,67.37
2019-01-06T17:55:46.727Z,62.93
2019-01-06T17:58:35.522Z,52.87
2019-01-06T18:01:27.508Z,144.87
2019-01-06T18:04:21.785Z,337.13
2019-01-06T18:07:16.100Z,270.67
2019-01-06T18:10:22.640Z,141.23
2019-01-06T18:13:07.903Z,87.80
2019-01-06T18:16:06.205Z,109.03
2019-01-06T18:19:00.462Z,113.17
2019-01-06T18:21:57.512Z,65.73
2019-01-06T18:24:44.565Z,72.37
2019-01-06T18:27:31.755Z,64.93
2019-01-06T18:30:19.980Z,59.77
2019-01-06T18:33:07.239Z,58.17
2019-01-06T18:36:10.837Z,57.50
2019-01-06T18:39:00.403Z,71.40
2019-01-06T18:41:50.523Z,50.07
2019-01-06T18:44:36.876Z,50.90
2019-01-06T18:47:23.926Z,58.77
2019-01-06T18:50:10.940Z,62.73
2019-01-06T18:52:57.661Z,50.47
2019-01-06T18:55:44.727Z,80.93
2019-01-06T18:58:32.909Z,61.40
2019-01-06T19:01:27.241Z,62.17
2019-01-06T19:04:18.423Z,65.33
2019-01-06T19:07:07.239Z,183.77
2019-01-06T19:10:00.775Z,160.30
2019-01-06T19:12:48.375Z,97.67
2019-01-06T19:15:30.642Z,293.00
2019-01-06T19:18:27.774Z,91.20
2019-01-06T19:21:12.986Z,130.93
2019-01-06T19:24:01.203Z,249.97
2019-01-06T19:26:48.337Z,571.13
2019-01-06T19:29:35.010Z,278.70
2019-01-06T19:32:22.857Z,300.50
2019-01-06T19:35:16.914Z,159.47
2019-01-06T19:38:06.489Z,258.80
2019-01-06T19:41:10.574Z,860.33
2019-01-06T19:44:04.650Z,551.57
2019-01-06T19:47:12.648Z,539.53
2019-01-06T19:50:00.842Z,216.80
2019-01-06T19:52:39.694Z,377.57
2019-01-06T19:55:26.912Z,618.10
2019-01-06T19:58:13.633Z,491.33
2019-01-06T20:01:00.535Z,469.93
2019-01-06T20:11:15.019Z,348.63
2019-01-06T20:14:02.106Z,461.17
2019-01-06T20:17:00.450Z,333.63
2019-01-06T20:20:14.074Z,349.70
2019-01-06T20:23:09.092Z,458.13
2019-01-06T20:25:57.747Z,392.57
2019-01-06T20:28:38.263Z,102.07
2019-01-06T20:31:29.486Z,133.83
2019-01-06T20:34:23.763Z,125.63
2019-01-06T20:37:11.908Z,224.23
2019-01-06T20:40:06.475Z,340.03
2019-01-06T20:42:59.067Z,309.43
2019-01-06T20:45:45.773Z,493.03
2019-01-06T20:48:36.868Z,629.60
2019-01-06T20:51:27.787Z,1413.03
2019-01-06T20:54:18.996Z,555.30
2019-01-06T20:57:06.654Z,514.80
2019-01-06T20:59:53.634Z,575.47
2019-01-06T21:02:44.601Z,477.93
2019-01-06T21:05:24.375Z,572.73
2019-01-06T21:08:13.752Z,554.83
2019-01-06T21:10:51.678Z,906.37
2019-01-06T21:13:38.496Z,493.23
2019-01-06T21:16:25.390Z,841.10
2019-01-06T21:19:33.734Z,420.43
2019-01-06T21:22:21.941Z,338.30
2019-01-06T21:25:13.180Z,504.10
2019-01-06T21:28:00.233Z,932.10
2019-01-06T21:30:48.411Z,774.10
2019-01-06T21:33:34.271Z,497.80
2019-01-06T21:36:21.092Z,307.87
2019-01-06T21:39:12.251Z,173.80
2019-01-06T21:42:04.348Z,145.83
2019-01-06T21:44:55.509Z,188.37
2019-01-06T21:47:57.189Z,229.33
2019-01-06T21:50:45.389Z,170.47
2019-01-06T21:53:39.656Z,421.27
2019-01-06T21:56:26.268Z,181.13
2019-01-06T21:59:12.401Z,237.70
2019-01-06T22:01:59.615Z,352.17
2019-01-06T22:04:46.366Z,230.83
2019-01-06T22:07:40.652Z,193.00
2019-01-06T22:10:29.065Z,209.03
2019-01-06T22:13:15.795Z,259.37
2019-01-06T22:16:16.269Z,561.03
2019-01-06T22:18:59.364Z,203.20
2019-01-06T22:21:50.542Z,184.53
2019-01-06T22:24:40.863Z,141.47
2019-01-06T22:27:27.859Z,126.50
2019-01-06T22:30:14.645Z,204.90
2019-01-06T22:33:21.140Z,228.60
2019-01-06T22:36:08.523Z,222.57
2019-01-06T22:38:47.695Z,132.13
2019-01-06T22:41:34.804Z,138.93
2019-01-06T22:44:26.029Z,206.97
2019-01-06T22:47:09.223Z,101.30
2019-01-06T22:50:03.453Z,142.77
2019-01-06T22:53:10.027Z,79.63
2019-01-06T22:55:57.711Z,67.00
2019-01-06T22:58:53.522Z,66.30
2019-01-06T23:01:48.700Z,108.97
2019-01-06T23:04:48.942Z,75.30
2019-01-06T23:07:49.424Z,110.57
2019-01-06T23:10:47.128Z,91.17
2019-01-06T23:13:36.277Z,75.77
2019-01-06T23:16:24.866Z,114.57
2019-01-06T23:19:22.655Z,92.73
2019-01-06T23:22:09.482Z,121.43
2019-01-06T23:24:58.288Z,141.80
2019-01-06T23:27:38.963Z,273.43
2019-01-06T23:30:26.141Z,129.10
2019-01-06T23:33:32.367Z,67.77
2019-01-06T23:36:19.307Z,84.00
2019-01-06T23:39:19.360Z,182.80
2019-01-06T23:42:05.364Z,93.47
2019-01-06T23:45:05.678Z,108.37
2019-01-06T23:47:45.015Z,131.60
2019-01-06T23:50:48.481Z,238.77
2019-01-06T23:53:54.824Z,126.40
2019-01-06T23:56:34.735Z,69.97
2019-01-06T23:59:15.269Z,163.93
